Rock Island, TN

1:18 PM CDT on September 17, 2014 (GMT -0500)
Upper Cumberland Regional | Change Station
CLOSE
Current Station
Airport
Location: Sparta,
Elevation: 1024 ft
Nearby Weather Stations

Elev 1024 ft 36.05 °N, 85.54 °W | Updated 3 minutes ago

Partly Cloudy
Partly Cloudy
72 °F
Feels Like 72 °F
N
5
Wind Variable Wind from NE

Today
High -- | Low -- °F
--% Chance of Precip.
Yesterday
High -- | Low -- °F
Precip. -- in
6:26 AM 6:46 PM
Waning Crescent, 34% visible
Pressure 30.01 in
Visibility 10.0 miles
Clouds Clear
Dew Point 55 °F
Humidity 57%
Rainfall 0.00 in
Snow Depth Not available.
UV 9 out of 12
Pollen 7.30 out of 12
Air Quality Not available.
Flu Activity Not available.
METAR KSRB 171815Z AUTO 04004KT 10SM CLR 22/13 A3001 RMK

More Conditions Fewer Conditions

Pressure 30.01 in
Visibility 10.0 miles
Clouds Clear
Dew Point 55 °F
Humidity 57%
Rainfall 0.00 in
Snow Depth Not available.
UV 9 out of 12
Pollen 7.30 out of 12
Air Quality Not available.
Flu Activity Not available.
METAR KSRB 171815Z AUTO 04004KT 10SM CLR 22/13 A3001 RMK

More Conditions Fewer Conditions

10-Day Weather Forecast

Almanac

Astronomy

Sep. 17, 2014 Rise Set
Actual Time 6:26 AM CDT 6:46 PM CDT
Civil Twilight 6:01 AM CDT 7:12 PM CDT
Nautical Twilight 5:31 AM CDT 7:42 PM CDT
Astronomical Twilight 5:00 AM CDT 8:12 PM CDT
Moon 12:34 AM CDT 2:48 PM CDT
Length of Visible Light 13h 11m
Length of Day
12h 20m
Tomorrow will be 2m 13s shorter.
Waning Crescent, 34% of the Moon is Illuminated
Today
Waning Crescent
Sep 24
New
Oct 1
First Quarter
Oct 8
Full
Oct 15
Last Quarter

Today's Extremes

State Highs State Lows

Community

WunderPhotos

Upload Photos

1,754,122 photos uploaded!

WunderBlogs® & News

Nearby

Snow Depth

Station Depth Elevation
No new snow has been reported.

Earthquake Activity

City Distance Mag. Time & Date
No recent earthquake activity has been reported nearby.
Minimum magnitude displayed is 2.5.

Coastal Water Temperatures

Place Temperature
No Stations Reporting

Nearby Weather Stations